Time;durP1;ratioP1;P1;durP2;ratioP2;P2;SDS_P1;SDS_P2;PMS_P1;PMS_P2;Temp;Humidity;BMP_temperature;BMP_pressure;BME280_temperature;BME280_humidity;BME280_pressure;Samples;Min_cycle;Max_cycle;Signal;HPM_P1;HPM_P2
2023/06/17 00:00:49;;;;;;;13.10;8.60;;;;;;;;;;5049357;28;20052;-78
2023/06/17 00:03:15;;;;;;;12.85;7.63;;;;;;;;;;5050265;28;20053;-79
2023/06/17 00:05:41;;;;;;;15.02;8.57;;;;;;;;;;5069630;28;20052;-79
2023/06/17 00:08:07;;;;;;;;;;;;;;;;;;5044037;28;20040;-81
2023/06/17 00:10:33;;;;;;;16.88;8.95;;;;;;;;;;5050191;28;20252;-79
2023/06/17 00:13:00;;;;;;;15.90;9.32;;;;;;;;;;5049504;28;20037;-80
2023/06/17 00:15:28;;;;;;;15.02;9.32;;;;;;;;;;5066529;28;20060;-79
2023/06/17 00:17:56;;;;;;;14.88;8.68;;;;;;;;;;5048150;28;20068;-79
2023/06/17 00:20:23;;;;;;;14.75;8.68;;;;;;;;;;5069511;28;20048;-79
2023/06/17 00:22:49;;;;;;;12.95;8.80;;;;;;;;;;5069412;28;20405;-83
2023/06/17 00:25:15;;;;;;;16.58;8.82;;;;;;;;;;5070114;28;20075;-80
2023/06/17 00:27:41;;;;;;;17.13;9.70;;;;;;;;;;5069933;28;20125;-79
2023/06/17 00:30:08;;;;;;;14.32;9.73;;;;;;;;;;5069272;28;20056;-81
2023/06/17 00:32:34;;;;;;;15.65;9.20;;;;;;;;;;5068969;28;20409;-80
2023/06/17 00:35:00;;;;;;;;;;;;;;;;;;5070052;28;20048;-79
2023/06/17 00:37:26;;;;;;;15.93;9.45;;;;;;;;;;5050244;28;19932;-76
2023/06/17 00:39:52;;;;;;;15.50;9.48;;;;;;;;;;5069210;28;20041;-77
2023/06/17 00:42:18;;;;;;;14.77;9.48;;;;;;;;;;5070096;28;20142;-76
2023/06/17 00:44:44;;;;;;;16.15;9.63;;;;;;;;;;5066425;28;20049;-76
2023/06/17 00:47:11;;;;;;;19.45;10.82;;;;;;;;;;5049270;28;20041;-76
2023/06/17 00:49:39;;;;;;;14.23;10.00;;;;;;;;;;5066419;28;20048;-76
2023/06/17 00:52:10;;;;;;;17.40;10.30;;;;;;;;;;5072939;28;20049;-77
2023/06/17 00:54:40;;;;;;;17.00;10.20;;;;;;;;;;5073665;28;20048;-76
2023/06/17 00:57:13;;;;;;;15.82;9.68;;;;;;;;;;5073399;28;20075;-77
2023/06/17 00:59:40;;;;;;;14.90;10.02;;;;;;;;;;5072907;28;20044;-76
2023/06/17 01:02:09;;;;;;;15.07;9.98;;;;;;;;;;5073517;28;20577;-76
2023/06/17 01:04:37;;;;;;;14.25;9.93;;;;;;;;;;5060173;28;20045;-77
2023/06/17 01:07:23;;;;;;;18.77;10.88;;;;;;;;;;5053276;28;20056;-77
2023/06/17 01:09:52;;;;;;;17.20;10.75;;;;;;;;;;5070388;28;20049;-78
2023/06/17 01:12:19;;;;;;;17.02;10.20;;;;;;;;;;5053648;28;20088;-77
2023/06/17 01:14:49;;;;;;;23.10;11.00;;;;;;;;;;5052645;28;20048;-77
2023/06/17 01:17:18;;;;;;;18.77;10.93;;;;;;;;;;5075866;28;20091;-77
2023/06/17 01:19:48;;;;;;;15.90;10.95;;;;;;;;;;5072546;28;20068;-76
2023/06/17 01:22:15;;;;;;;17.80;11.20;;;;;;;;;;5072803;28;20044;-78
2023/06/17 01:24:41;;;;;;;18.58;11.85;;;;;;;;;;5068259;28;20055;-77
2023/06/17 01:27:08;;;;;;;;;;;;;;;;;;5053306;28;20132;-76
2023/06/17 01:29:36;;;;;;;19.60;11.15;;;;;;;;;;5071871;28;19924;-76
2023/06/17 01:32:03;;;;;;;16.55;11.90;;;;;;;;;;5072514;28;20041;-77
2023/06/17 01:34:36;;;;;;;16.92;11.57;;;;;;;;;;5071994;28;20053;-76
2023/06/17 01:37:08;;;;;;;18.90;11.50;;;;;;;;;;5065936;28;20091;-77
2023/06/17 01:39:36;;;;;;;19.65;11.88;;;;;;;;;;5052989;28;20132;-78
2023/06/17 01:42:03;;;;;;;20.40;11.30;;;;;;;;;;5052734;28;20106;-76
2023/06/17 01:44:30;;;;;;;15.82;11.27;;;;;;;;;;5052853;28;20045;-78
2023/06/17 01:46:56;;;;;;;18.17;10.63;;;;;;;;;;5052445;28;20053;-80
2023/06/17 01:49:22;;;;;;;;;;;;;;;;;;5052497;28;20380;-76
2023/06/17 01:51:48;;;;;;;19.25;10.77;;;;;;;;;;5069205;28;19932;-78
2023/06/17 01:54:14;;;;;;;;;;;;;;;;;;5070547;28;20113;-76
2023/06/17 01:56:40;;;;;;;17.33;11.30;;;;;;;;;;5069637;28;20005;-77
2023/06/17 01:59:06;;;;;;;17.80;11.75;;;;;;;;;;5051920;28;20049;-78
2023/06/17 02:01:32;;;;;;;;;;;;;;;;;;5052338;28;20052;-77
2023/06/17 02:03:58;;;;;;;18.58;12.48;;;;;;;;;;5051430;28;19924;-77
2023/06/17 02:06:24;;;;;;;;;;;;;;;;;;5054044;28;20475;-79
2023/06/17 02:08:50;;;;;;;19.42;12.23;;;;;;;;;;5053755;28;19931;-80
2023/06/17 02:11:16;;;;;;;19.13;13.13;;;;;;;;;;5053909;28;20048;-79
2023/06/17 02:13:42;;;;;;;23.23;13.85;;;;;;;;;;5054027;28;20055;-79
2023/06/17 02:16:08;;;;;;;29.27;15.80;;;;;;;;;;5061865;28;20044;-79
2023/06/17 02:18:34;;;;;;;;;;;;;;;;;;5073290;28;20067;-79
2023/06/17 02:21:01;;;;;;;37.70;17.35;;;;;;;;;;5073552;28;19921;-79
2023/06/17 02:23:27;;;;;;;33.83;17.77;;;;;;;;;;5073904;28;20123;-78
2023/06/17 02:25:54;;;;;;;35.00;18.83;;;;;;;;;;5057392;28;20115;-79
2023/06/17 02:28:21;;;;;;;35.38;18.63;;;;;;;;;;5073239;28;20052;-79
2023/06/17 02:30:46;;;;;;;;;;;;;;;;;;5057670;28;20138;-79
2023/06/17 02:33:13;;;;;;;33.42;19.25;;;;;;;;;;5073078;28;20313;-79
2023/06/17 02:35:39;;;;;;;38.78;20.13;;;;;;;;;;5057137;28;20045;-79
2023/06/17 02:38:05;;;;;;;;;;;;;;;;;;5057876;28;20063;-80
2023/06/17 02:40:31;;;;;;;35.78;19.52;;;;;;;;;;5053638;28;19921;-79
2023/06/17 02:42:57;;;;;;;38.78;20.75;;;;;;;;;;5053490;28;20052;-79
2023/06/17 02:45:23;;;;;;;39.58;20.42;;;;;;;;;;5052867;28;20052;-79
2023/06/17 02:47:50;;;;;;;40.78;22.00;;;;;;;;;;5052889;28;20080;-79
2023/06/17 02:50:20;;;;;;;38.65;20.77;;;;;;;;;;5069513;28;20049;-79
2023/06/17 02:52:47;;;;;;;35.17;20.50;;;;;;;;;;5063270;28;20052;-80
2023/06/17 02:55:15;;;;;;;37.53;21.33;;;;;;;;;;5071803;28;20084;-79
2023/06/17 02:57:41;;;;;;;33.63;20.67;;;;;;;;;;5069207;28;20056;-80
2023/06/17 03:00:08;;;;;;;38.85;22.58;;;;;;;;;;5071332;28;20536;-79
2023/06/17 03:02:34;;;;;;;40.92;21.13;;;;;;;;;;5072503;28;20056;-80
2023/06/17 03:05:00;;;;;;;37.42;21.70;;;;;;;;;;5072994;28;20132;-83
2023/06/17 03:07:26;;;;;;;35.80;21.95;;;;;;;;;;5072728;28;20048;-80
2023/06/17 03:09:52;;;;;;;48.72;23.67;;;;;;;;;;5056372;28;20044;-79
2023/06/17 03:12:18;;;;;;;;;;;;;;;;;;5073145;28;20048;-79
2023/06/17 03:14:47;;;;;;;41.20;22.45;;;;;;;;;;5072624;28;19946;-79
2023/06/17 03:17:13;;;;;;;38.53;21.77;;;;;;;;;;5072203;28;20139;-79
2023/06/17 03:19:40;;;;;;;39.25;22.42;;;;;;;;;;5072427;28;20474;-79
2023/06/17 03:22:06;;;;;;;33.65;21.83;;;;;;;;;;5072227;28;20052;-80
2023/06/17 03:24:33;;;;;;;38.72;21.20;;;;;;;;;;5063930;28;20048;-79
2023/06/17 03:26:59;;;;;;;40.72;21.58;;;;;;;;;;5072720;28;20107;-79
2023/06/17 03:29:25;;;;;;;;;;;;;;;;;;5072601;28;20076;-80
2023/06/17 03:31:56;;;;;;;36.42;20.05;;;;;;;;;;5072636;28;20021;-80
2023/06/17 03:34:22;;;;;;;34.72;19.85;;;;;;;;;;5071759;28;20051;-80
2023/06/17 03:36:49;;;;;;;38.47;21.55;;;;;;;;;;5071974;28;20045;-81
2023/06/17 03:39:15;;;;;;;31.88;20.05;;;;;;;;;;5071566;28;20051;-81
2023/06/17 03:41:41;;;;;;;;;;;;;;;;;;5038834;28;20053;-81
2023/06/17 03:44:07;;;;;;;36.70;20.73;;;;;;;;;;5071461;28;19920;-81
2023/06/17 03:46:33;;;;;;;36.38;21.90;;;;;;;;;;5073147;28;20097;-80
2023/06/17 03:48:59;;;;;;;;;;;;;;;;;;5055290;28;20075;-80
2023/06/17 03:51:25;;;;;;;34.63;21.02;;;;;;;;;;5071726;28;19930;-80
2023/06/17 03:53:51;;;;;;;36.17;22.17;;;;;;;;;;5072035;28;20747;-80
2023/06/17 03:56:18;;;;;;;35.15;20.67;;;;;;;;;;5055053;28;20486;-79
2023/06/17 03:58:44;;;;;;;;;;;;;;;;;;5055455;28;20055;-80
2023/06/17 04:01:12;;;;;;;40.42;21.35;;;;;;;;;;5071724;28;19928;-80
2023/06/17 04:03:40;;;;;;;31.88;19.83;;;;;;;;;;5039151;28;20155;-80
2023/06/17 04:06:06;;;;;;;39.95;21.77;;;;;;;;;;5038864;28;20048;-85
2023/06/17 04:08:33;;;;;;;41.30;22.42;;;;;;;;;;5071644;28;20045;-83
2023/06/17 04:10:58;;;;;;;;;;;;;;;;;;5055863;28;20053;-80
2023/06/17 04:13:25;;;;;;;37.38;22.38;;;;;;;;;;5071216;28;20400;-80
2023/06/17 04:15:51;;;;;;;40.17;22.13;;;;;;;;;;5071796;28;20127;-82
2023/06/17 04:18:17;;;;;;;39.65;21.98;;;;;;;;;;5070396;28;20139;-80
2023/06/17 04:20:44;;;;;;;;;;;;;;;;;;5071927;28;20131;-80
2023/06/17 04:23:10;;;;;;;39.30;21.00;;;;;;;;;;5071057;28;19925;-82
2023/06/17 04:25:37;;;;;;;38.85;22.45;;;;;;;;;;5070916;28;20059;-80
2023/06/17 04:28:07;;;;;;;35.83;21.88;;;;;;;;;;5070728;28;20049;-81
2023/06/17 04:30:33;;;;;;;33.53;22.90;;;;;;;;;;5070763;28;20064;-80
2023/06/17 04:33:00;;;;;;;38.65;23.23;;;;;;;;;;5071198;28;20040;-79
2023/06/17 04:35:29;;;;;;;37.55;22.13;;;;;;;;;;5071437;28;20534;-80
2023/06/17 04:37:56;;;;;;;38.78;23.05;;;;;;;;;;5058520;28;20045;-80
2023/06/17 04:40:22;;;;;;;37.33;21.33;;;;;;;;;;5051354;28;20044;-80
2023/06/17 04:42:49;;;;;;;38.97;22.30;;;;;;;;;;5051491;28;20107;-80
2023/06/17 04:45:17;;;;;;;36.90;23.23;;;;;;;;;;5051340;28;20048;-80
2023/06/17 04:47:43;;;;;;;38.80;23.35;;;;;;;;;;5051022;28;20037;-80
2023/06/17 04:50:12;;;;;;;36.40;22.48;;;;;;;;;;5051572;28;20541;-83
2023/06/17 04:52:42;;;;;;;40.33;22.23;;;;;;;;;;5051466;28;20053;-80
2023/06/17 04:55:09;;;;;;;36.10;22.05;;;;;;;;;;5051208;28;20405;-80
2023/06/17 04:57:35;;;;;;;39.83;23.02;;;;;;;;;;5053996;28;20053;-80
2023/06/17 05:00:01;;;;;;;35.97;22.13;;;;;;;;;;5071403;28;20500;-82
2023/06/17 05:02:27;;;;;;;34.90;22.25;;;;;;;;;;5090441;28;20485;-80
2023/06/17 05:04:53;;;;;;;34.85;21.88;;;;;;;;;;5091478;28;20462;-83
2023/06/17 05:07:19;;;;;;;;;;;;;;;;;;5091710;28;20040;-81
2023/06/17 05:09:45;;;;;;;40.55;21.92;;;;;;;;;;5074777;28;20364;-81
2023/06/17 05:12:11;;;;;;;36.85;21.45;;;;;;;;;;5091511;28;20157;-84
2023/06/17 05:14:37;;;;;;;;;;;;;;;;;;5091702;28;20055;-80
2023/06/17 05:17:03;;;;;;;38.00;21.70;;;;;;;;;;5091185;28;19919;-81
2023/06/17 05:19:29;;;;;;;;;;;;;;;;;;5091282;28;20047;-80
2023/06/17 05:21:55;;;;;;;36.42;22.20;;;;;;;;;;5091298;28;20343;-80
2023/06/17 05:24:21;;;;;;;;;;;;;;;;;;5086340;28;20182;-80
2023/06/17 05:26:47;;;;;;;40.58;22.85;;;;;;;;;;5071302;28;19967;-81
2023/06/17 05:29:13;;;;;;;;;;;;;;;;;;5054589;28;20134;-84
2023/06/17 05:31:39;;;;;;;38.70;22.42;;;;;;;;;;5054544;28;19959;-80
2023/06/17 05:34:05;;;;;;;;;;;;;;;;;;5054645;28;20087;-80
2023/06/17 05:36:31;;;;;;;35.50;21.30;;;;;;;;;;5071792;28;19959;-80
2023/06/17 05:38:57;;;;;;;38.20;23.63;;;;;;;;;;5074605;28;20402;-80
2023/06/17 05:41:23;;;;;;;42.20;22.90;;;;;;;;;;5074661;28;20466;-81
2023/06/17 05:43:49;;;;;;;;;;;;;;;;;;5058384;28;20045;-80
2023/06/17 05:46:16;;;;;;;44.92;23.15;;;;;;;;;;5057399;28;19924;-82
2023/06/17 05:48:42;;;;;;;38.83;22.38;;;;;;;;;;5057390;28;20482;-81
2023/06/17 05:51:08;;;;;;;;;;;;;;;;;;5058320;28;20056;-81
2023/06/17 05:53:34;;;;;;;38.22;20.80;;;;;;;;;;5074249;28;19920;-81
2023/06/17 05:56:00;;;;;;;;;;;;;;;;;;5074869;28;20075;-81
2023/06/17 05:58:26;;;;;;;39.53;22.02;;;;;;;;;;5074043;28;19975;-81
2023/06/17 06:00:52;;;;;;;;;;;;;;;;;;5074430;28;20056;-82
2023/06/17 06:03:18;;;;;;;40.45;20.58;;;;;;;;;;5073185;28;20011;-82
2023/06/17 06:05:44;;;;;;;38.78;21.73;;;;;;;;;;5073499;28;20051;-81
2023/06/17 06:08:10;;;;;;;;;;;;;;;;;;5073208;28;20090;-81
2023/06/17 06:10:36;;;;;;;33.03;20.38;;;;;;;;;;5070533;28;19928;-81
2023/06/17 06:13:02;;;;;;;32.65;21.02;;;;;;;;;;5053410;28;20049;-81
2023/06/17 06:15:28;;;;;;;;;;;;;;;;;;5054135;28;20098;-81
2023/06/17 06:17:54;;;;;;;39.83;20.73;;;;;;;;;;5069772;28;20010;-81
2023/06/17 06:20:20;;;;;;;;;;;;;;;;;;5054092;28;20188;-82
2023/06/17 06:22:46;;;;;;;34.92;20.05;;;;;;;;;;5070587;28;20011;-81
2023/06/17 06:25:12;;;;;;;33.53;20.00;;;;;;;;;;5069685;28;20048;-80
2023/06/17 06:27:38;;;;;;;;;;;;;;;;;;5056704;28;20611;-81
2023/06/17 06:30:05;;;;;;;28.10;18.92;;;;;;;;;;5053851;28;19924;-81
2023/06/17 06:32:31;;;;;;;31.02;20.48;;;;;;;;;;5052725;28;20581;-81
2023/06/17 06:34:57;;;;;;;30.48;20.67;;;;;;;;;;5053710;28;20414;-81
2023/06/17 06:37:23;;;;;;;;;;;;;;;;;;5053590;28;20383;-81
2023/06/17 06:39:49;;;;;;;34.08;20.25;;;;;;;;;;5081906;28;19927;-79
2023/06/17 06:42:15;;;;;;;;;;;;;;;;;;5072454;28;20063;-84
2023/06/17 06:44:41;;;;;;;30.45;19.75;;;;;;;;;;5071527;28;19924;-75
2023/06/17 06:47:07;;;;;;;;;;;;;;;;;;5072523;28;20051;-78
2023/06/17 06:49:33;;;;;;;31.83;18.25;;;;;;;;;;5069983;28;19920;-79
2023/06/17 06:51:59;;;;;;;26.27;17.73;;;;;;;;;;5065868;28;20057;-76
2023/06/17 06:54:25;;;;;;;28.17;19.70;;;;;;;;;;5067915;28;20067;-72
2023/06/17 06:56:51;;;;;;;;;;;;;;;;;;5068955;28;20052;-76
2023/06/17 06:59:17;;;;;;;29.92;18.60;;;;;;;;;;5051280;28;20274;-79
2023/06/17 07:01:43;;;;;;;;;;;;;;;;;;5034843;28;20052;-77
2023/06/17 07:04:10;;;;;;;33.05;19.58;;;;;;;;;;5064577;28;19921;-76
2023/06/17 07:06:36;;;;;;;30.92;18.45;;;;;;;;;;5070367;28;20056;-69
2023/06/17 07:09:02;;;;;;;;;;;;;;;;;;5070298;28;20374;-69
2023/06/17 07:11:28;;;;;;;32.22;17.48;;;;;;;;;;5056344;28;19927;-69
2023/06/17 07:13:54;;;;;;;29.90;17.52;;;;;;;;;;5071706;28;20067;-77
2023/06/17 07:16:20;;;;;;;27.20;16.90;;;;;;;;;;5070727;28;20060;-75
2023/06/17 07:18:46;;;;;;;;;;;;;;;;;;5069928;28;20141;-76
2023/06/17 07:21:12;;;;;;;29.58;17.42;;;;;;;;;;5070422;28;20034;-76
2023/06/17 07:23:38;;;;;;;;;;;;;;;;;;5070820;28;20047;-76
2023/06/17 07:26:04;;;;;;;33.70;19.02;;;;;;;;;;5069940;28;19920;-64
2023/06/17 07:28:31;;;;;;;;;;;;;;;;;;5066316;28;20036;-76
2023/06/17 07:30:57;;;;;;;28.58;18.00;;;;;;;;;;5059148;28;19994;-71
2023/06/17 07:33:23;;;;;;;;;;;;;;;;;;5051242;28;20049;-71
2023/06/17 07:35:49;;;;;;;23.58;15.82;;;;;;;;;;5067190;28;19925;-70
2023/06/17 07:38:15;;;;;;;;;;;;;;;;;;5050541;28;20283;-71
2023/06/17 07:40:41;;;;;;;30.33;16.23;;;;;;;;;;5051011;28;19925;-71
2023/06/17 07:43:07;;;;;;;;;;;;;;;;;;5057224;28;20076;-70
2023/06/17 07:45:33;;;;;;;24.70;15.57;;;;;;;;;;5069250;28;19967;-71
2023/06/17 07:47:59;;;;;;;29.50;17.60;;;;;;;;;;5067545;28;20051;-70
2023/06/17 07:50:25;;;;;;;;;;;;;;;;;;5069254;28;20048;-71
2023/06/17 07:52:52;;;;;;;25.20;16.83;;;;;;;;;;5069687;28;19931;-71
2023/06/17 07:55:19;;;;;;;29.67;17.55;;;;;;;;;;5070260;28;20064;-71
2023/06/17 07:57:45;;;;;;;25.48;15.93;;;;;;;;;;5068540;28;20197;-70
2023/06/17 08:00:13;;;;;;;;;;;;;;;;;;5069906;28;20051;-71
2023/06/17 08:02:42;;;;;;;25.10;16.30;;;;;;;;;;5068721;28;20369;-71
2023/06/17 08:05:08;;;;;;;25.77;16.80;;;;;;;;;;5067634;28;20044;-69
2023/06/17 08:07:35;;;;;;;28.58;17.58;;;;;;;;;;5069058;28;20040;-71
2023/06/17 08:10:01;;;;;;;25.58;17.25;;;;;;;;;;5068150;28;20040;-71
2023/06/17 08:12:27;;;;;;;;;;;;;;;;;;5070011;28;20109;-71
2023/06/17 08:14:53;;;;;;;27.73;16.73;;;;;;;;;;5069620;28;19924;-71
2023/06/17 08:17:19;;;;;;;29.55;16.55;;;;;;;;;;5069767;28;20135;-71
2023/06/17 08:19:46;;;;;;;22.10;15.65;;;;;;;;;;5067381;28;20051;-71
2023/06/17 08:22:12;;;;;;;;;;;;;;;;;;5069933;28;20118;-71
2023/06/17 08:24:38;;;;;;;23.08;15.43;;;;;;;;;;5069485;28;20336;-71
2023/06/17 08:27:05;;;;;;;;;;;;;;;;;;5070288;28;20094;-71
2023/06/17 08:29:32;;;;;;;27.85;16.05;;;;;;;;;;5067409;28;19924;-71
2023/06/17 08:31:58;;;;;;;20.67;13.32;;;;;;;;;;5069296;28;20398;-71
2023/06/17 08:34:24;;;;;;;;;;;;;;;;;;5069389;28;20124;-72
2023/06/17 08:36:55;;;;;;;22.90;14.75;;;;;;;;;;5068970;28;19925;-72
2023/06/17 08:39:21;;;;;;;21.42;14.43;;;;;;;;;;5068706;28;20044;-71
2023/06/17 08:41:47;;;;;;;20.98;13.48;;;;;;;;;;5068079;28;20124;-71
2023/06/17 08:44:14;;;;;;;22.10;15.50;;;;;;;;;;5069675;28;20048;-71
2023/06/17 08:46:42;;;;;;;22.70;16.02;;;;;;;;;;5069626;28;20131;-71
2023/06/17 08:49:08;;;;;;;24.15;15.80;;;;;;;;;;5069251;28;20096;-72
2023/06/17 08:51:35;;;;;;;26.48;15.73;;;;;;;;;;5068416;28;20049;-76
2023/06/17 08:54:02;;;;;;;21.02;14.10;;;;;;;;;;5071175;28;20053;-90
2023/06/17 08:56:28;;;;;;;24.38;15.55;;;;;;;;;;5071002;28;20162;-89
2023/06/17 08:58:55;;;;;;;22.73;15.10;;;;;;;;;;5053280;28;20405;-87
2023/06/17 09:01:22;;;;;;;24.85;15.02;;;;;;;;;;5070023;28;20044;-89
2023/06/17 09:03:49;;;;;;;22.77;14.52;;;;;;;;;;5066459;28;20390;-88
2023/06/17 09:06:15;;;;;;;22.85;15.13;;;;;;;;;;5064978;28;20049;-88
2023/06/17 09:08:41;;;;;;;;;;;;;;;;;;5069663;28;20105;-87
2023/06/17 09:11:07;;;;;;;23.58;13.30;;;;;;;;;;5072075;28;20329;-78
2023/06/17 09:13:33;;;;;;;;;;;;;;;;;;5073011;28;20056;-78
2023/06/17 09:16:00;;;;;;;25.17;14.93;;;;;;;;;;5069706;28;19921;-77
2023/06/17 09:18:26;;;;;;;20.35;14.13;;;;;;;;;;5070263;28;20057;-76
2023/06/17 09:20:55;;;;;;;27.05;13.32;;;;;;;;;;5071670;28;20682;-77
2023/06/17 09:23:22;;;;;;;21.67;12.57;;;;;;;;;;5063228;28;20104;-76
2023/06/17 09:25:48;;;;;;;21.70;12.95;;;;;;;;;;5058465;28;20049;-76
2023/06/17 09:28:14;;;;;;;;;;;;;;;;;;5058201;28;20037;-76
2023/06/17 09:30:43;;;;;;;25.17;14.05;;;;;;;;;;5052472;28;19927;-76
2023/06/17 09:33:19;;;;;;;21.35;13.93;;;;;;;;;;5077769;28;20074;-76
2023/06/17 09:35:46;;;;;;;23.38;14.27;;;;;;;;;;5072587;28;20091;-76
2023/06/17 09:38:15;;;;;;;21.50;13.38;;;;;;;;;;5060856;28;20061;-76
2023/06/17 09:40:41;;;;;;;20.17;12.82;;;;;;;;;;5065473;28;20500;-76
2023/06/17 09:43:09;;;;;;;23.17;13.63;;;;;;;;;;5072642;28;20056;-76
2023/06/17 09:45:35;;;;;;;25.33;13.50;;;;;;;;;;5057552;28;20056;-77
2023/06/17 09:48:01;;;;;;;;;;;;;;;;;;5052143;28;20049;-76
2023/06/17 09:50:30;;;;;;;18.65;12.25;;;;;;;;;;5069358;28;20016;-76
2023/06/17 09:52:57;;;;;;;23.48;13.57;;;;;;;;;;5068259;28;20064;-76
2023/06/17 09:55:23;;;;;;;21.73;12.32;;;;;;;;;;5052930;28;20045;-68
2023/06/17 09:57:53;;;;;;;24.60;14.82;;;;;;;;;;5059676;28;20098;-69
2023/06/17 10:00:27;;;;;;;20.45;13.77;;;;;;;;;;5070943;28;20127;-70
2023/06/17 10:02:53;;;;;;;22.33;14.05;;;;;;;;;;5058834;28;20092;-76
2023/06/17 10:05:20;;;;;;;25.50;13.35;;;;;;;;;;5054116;28;20084;-75
2023/06/17 10:07:47;;;;;;;20.00;12.32;;;;;;;;;;5071867;28;20053;-78
2023/06/17 10:10:15;;;;;;;21.13;13.00;;;;;;;;;;5073341;28;20122;-78
2023/06/17 10:12:43;;;;;;;19.20;12.48;;;;;;;;;;5072693;28;20052;-78
2023/06/17 10:15:11;;;;;;;27.50;12.52;;;;;;;;;;5073092;28;20131;-77
2023/06/17 10:17:38;;;;;;;20.50;11.60;;;;;;;;;;5071552;28;20068;-79
2023/06/17 10:20:07;;;;;;;17.35;10.35;;;;;;;;;;5072338;28;20132;-77
2023/06/17 10:22:35;;;;;;;18.48;10.38;;;;;;;;;;5067057;28;20049;-75
2023/06/17 10:25:02;;;;;;;24.33;10.40;;;;;;;;;;5068904;28;20111;-75
2023/06/17 10:27:28;;;;;;;17.65;9.95;;;;;;;;;;5071528;28;20040;-73
2023/06/17 10:29:57;;;;;;;15.70;10.10;;;;;;;;;;5060877;28;20045;-74
2023/06/17 10:32:24;;;;;;;15.52;9.57;;;;;;;;;;5063245;28;20048;-76
2023/06/17 10:35:03;;;;;;;16.13;9.30;;;;;;;;;;5071611;28;20089;-72
2023/06/17 10:37:29;;;;;;;14.63;8.73;;;;;;;;;;5072385;28;20095;-77
2023/06/17 10:39:55;;;;;;;16.85;9.75;;;;;;;;;;5072161;28;20125;-76
2023/06/17 10:42:25;;;;;;;13.07;6.40;;;;;;;;;;5071699;28;20052;-77
2023/06/17 10:44:51;;;;;;;13.75;7.47;;;;;;;;;;5048688;28;20045;-77
2023/06/17 10:47:21;;;;;;;18.92;9.73;;;;;;;;;;5052420;28;20092;-77
2023/06/17 10:49:50;;;;;;;14.02;8.70;;;;;;;;;;5050225;28;20049;-76
2023/06/17 10:52:17;;;;;;;12.65;7.72;;;;;;;;;;5062379;28;20052;-77
2023/06/17 10:54:55;;;;;;;17.40;10.90;;;;;;;;;;5067836;28;20052;-78
2023/06/17 10:57:32;;;;;;;17.52;9.85;;;;;;;;;;5052742;28;20049;-76
2023/06/17 11:00:06;;;;;;;16.23;10.50;;;;;;;;;;5063583;28;20482;-76
2023/06/17 11:02:32;;;;;;;14.98;8.90;;;;;;;;;;5071465;28;20151;-80
2023/06/17 11:05:01;;;;;;;16.63;9.02;;;;;;;;;;5070723;28;20390;-79
2023/06/17 11:07:27;;;;;;;18.20;10.05;;;;;;;;;;5069431;28;20056;-77
2023/06/17 11:09:54;;;;;;;16.75;9.52;;;;;;;;;;5077177;28;20053;-87
2023/06/17 11:12:20;;;;;;;15.10;9.23;;;;;;;;;;5067931;28;20048;-78
2023/06/17 11:14:46;;;;;;;15.25;8.63;;;;;;;;;;5052683;28;20131;-73
2023/06/17 11:17:12;;;;;;;11.52;6.82;;;;;;;;;;5051670;28;20135;-75
2023/06/17 11:19:38;;;;;;;15.50;8.02;;;;;;;;;;5051123;28;20632;-76
2023/06/17 11:22:06;;;;;;;14.15;8.82;;;;;;;;;;5050683;28;20753;-74
2023/06/17 11:24:32;;;;;;;15.05;9.15;;;;;;;;;;5051894;28;20057;-74
2023/06/17 11:26:59;;;;;;;14.68;9.23;;;;;;;;;;5056913;28;20114;-78
2023/06/17 11:29:26;;;;;;;13.98;7.40;;;;;;;;;;5059110;28;20449;-76
2023/06/17 11:31:52;;;;;;;9.65;5.55;;;;;;;;;;5055756;28;20064;-81
2023/06/17 11:34:19;;;;;;;12.95;7.60;;;;;;;;;;5022636;28;20132;-77
2023/06/17 11:36:51;;;;;;;15.10;8.27;;;;;;;;;;5049843;28;20084;-78
2023/06/17 11:39:18;;;;;;;14.27;8.27;;;;;;;;;;5070559;28;20091;-77
2023/06/17 11:41:45;;;;;;;13.00;7.30;;;;;;;;;;5070567;28;20048;-77
2023/06/17 11:44:11;;;;;;;11.88;6.57;;;;;;;;;;5069480;28;20088;-83
2023/06/17 11:46:37;;;;;;;9.13;5.82;;;;;;;;;;5053824;28;20497;-83
2023/06/17 11:49:06;;;;;;;8.57;5.72;;;;;;;;;;5052049;28;20094;-81
2023/06/17 11:51:32;;;;;;;10.00;5.80;;;;;;;;;;5052095;28;20405;-82
2023/06/17 11:54:03;;;;;;;9.73;5.15;;;;;;;;;;5067820;28;20123;-81
2023/06/17 11:56:32;;;;;;;14.95;6.35;;;;;;;;;;5067270;28;20040;-81
2023/06/17 11:58:58;;;;;;;10.73;5.60;;;;;;;;;;5055590;28;20075;-81
2023/06/17 12:01:27;;;;;;;9.23;5.50;;;;;;;;;;5049315;28;20044;-80
2023/06/17 12:03:55;;;;;;;8.23;4.90;;;;;;;;;;5048536;28;20053;-81
2023/06/17 12:06:22;;;;;;;9.20;4.30;;;;;;;;;;5049578;28;20053;-81
2023/06/17 12:08:58;;;;;;;13.13;5.90;;;;;;;;;;5049388;28;20037;-83
2023/06/17 12:11:25;;;;;;;11.27;5.43;;;;;;;;;;5050204;28;20135;-81
2023/06/17 12:13:51;;;;;;;10.95;5.53;;;;;;;;;;5055487;28;20405;-82
2023/06/17 12:16:24;;;;;;;11.27;5.55;;;;;;;;;;5051645;28;20044;-82
2023/06/17 12:18:51;;;;;;;9.55;5.70;;;;;;;;;;5035173;28;20045;-82
2023/06/17 12:21:21;;;;;;;6.95;4.78;;;;;;;;;;5069494;28;20049;-81
2023/06/17 12:23:50;;;;;;;7.10;4.60;;;;;;;;;;5066195;28;20131;-80
2023/06/17 12:26:16;;;;;;;9.65;4.70;;;;;;;;;;5066460;28;20049;-81
2023/06/17 12:28:43;;;;;;;6.90;4.70;;;;;;;;;;5066086;28;20044;-81
2023/06/17 12:31:09;;;;;;;12.10;5.20;;;;;;;;;;5066115;28;20091;-81
2023/06/17 12:33:36;;;;;;;8.57;5.07;;;;;;;;;;5049270;28;20052;-80
2023/06/17 12:36:03;;;;;;;9.13;5.15;;;;;;;;;;5065654;28;20068;-81
2023/06/17 12:38:31;;;;;;;8.70;5.30;;;;;;;;;;5066456;28;20044;-82
2023/06/17 12:40:59;;;;;;;8.60;5.15;;;;;;;;;;5058417;28;20510;-82
2023/06/17 12:43:25;;;;;;;12.55;5.20;;;;;;;;;;5066339;28;20103;-81
2023/06/17 12:45:51;;;;;;;10.38;5.07;;;;;;;;;;5068039;28;20398;-83
2023/06/17 12:48:17;;;;;;;11.57;5.53;;;;;;;;;;5071796;28;20513;-81
2023/06/17 12:50:44;;;;;;;12.57;5.15;;;;;;;;;;5074039;28;20041;-80
2023/06/17 12:53:11;;;;;;;10.80;5.47;;;;;;;;;;5073755;28;20560;-81
2023/06/17 12:55:37;;;;;;;10.43;5.00;;;;;;;;;;5073901;28;20145;-80
2023/06/17 12:58:04;;;;;;;9.25;4.97;;;;;;;;;;5073230;28;20474;-81
2023/06/17 13:00:30;;;;;;;9.70;5.07;;;;;;;;;;5072956;28;20076;-80
2023/06/17 13:02:56;;;;;;;8.82;5.35;;;;;;;;;;5087963;28;20078;-80
2023/06/17 13:05:23;;;;;;;8.60;4.57;;;;;;;;;;5053657;28;20044;-80
2023/06/17 13:07:49;;;;;;;7.07;4.45;;;;;;;;;;5063984;28;20486;-80
2023/06/17 13:10:15;;;;;;;12.70;5.28;;;;;;;;;;5068834;28;20670;-79
2023/06/17 13:12:41;;;;;;;12.13;4.93;;;;;;;;;;5050281;28;20060;-80
2023/06/17 13:15:08;;;;;;;9.48;4.75;;;;;;;;;;5036238;28;20515;-81
2023/06/17 13:17:34;;;;;;;29.98;6.88;;;;;;;;;;5071676;28;20059;-81
2023/06/17 13:20:01;;;;;;;7.85;4.72;;;;;;;;;;5072603;28;20115;-81
2023/06/17 13:22:27;;;;;;;11.55;5.32;;;;;;;;;;5071372;28;20045;-82
2023/06/17 13:24:53;;;;;;;8.70;5.38;;;;;;;;;;5063949;28;20048;-84
2023/06/17 13:27:20;;;;;;;8.07;5.00;;;;;;;;;;5068598;28;20110;-81
2023/06/17 13:29:46;;;;;;;9.80;5.32;;;;;;;;;;5068895;28;20387;-82
2023/06/17 13:32:12;;;;;;;11.15;4.88;;;;;;;;;;5047142;28;20138;-81
2023/06/17 13:34:38;;;;;;;8.00;4.72;;;;;;;;;;5055124;28;20401;-81
2023/06/17 13:37:05;;;;;;;8.00;4.28;;;;;;;;;;5055242;28;20449;-81
2023/06/17 13:39:31;;;;;;;7.30;4.55;;;;;;;;;;5056015;28;20432;-81
2023/06/17 13:41:58;;;;;;;5.80;4.00;;;;;;;;;;5055442;28;20048;-82
2023/06/17 13:44:24;;;;;;;9.10;4.40;;;;;;;;;;5055575;28;20089;-81
2023/06/17 13:46:50;;;;;;;9.63;4.82;;;;;;;;;;5072157;28;20106;-81
2023/06/17 13:49:16;;;;;;;13.90;4.88;;;;;;;;;;5054274;28;20044;-81
2023/06/17 13:51:43;;;;;;;7.57;4.38;;;;;;;;;;5055869;28;20147;-81
2023/06/17 13:54:09;;;;;;;10.82;4.78;;;;;;;;;;5055561;28;20119;-81
2023/06/17 13:56:35;;;;;;;8.70;4.63;;;;;;;;;;5054788;28;20052;-82
2023/06/17 13:59:01;;;;;;;8.35;4.72;;;;;;;;;;5067005;28;20652;-82
2023/06/17 14:01:27;;;;;;;7.20;4.70;;;;;;;;;;5071980;28;20043;-82
2023/06/17 14:03:53;;;;;;;6.47;4.25;;;;;;;;;;5064851;28;20376;-80
2023/06/17 14:06:20;;;;;;;9.15;4.57;;;;;;;;;;5054628;28;20060;-78
2023/06/17 14:08:46;;;;;;;8.27;4.75;;;;;;;;;;5068511;28;20059;-80
2023/06/17 14:11:12;;;;;;;7.13;4.03;;;;;;;;;;5063443;28;20044;-79
2023/06/17 14:13:38;;;;;;;9.43;4.18;;;;;;;;;;5071772;28;20048;-79
2023/06/17 14:16:04;;;;;;;7.13;4.50;;;;;;;;;;5053012;28;20055;-79
2023/06/17 14:18:31;;;;;;;10.65;4.03;;;;;;;;;;5067608;28;20376;-78
2023/06/17 14:20:57;;;;;;;10.65;4.05;;;;;;;;;;5068816;28;20092;-79
2023/06/17 14:23:23;;;;;;;7.15;4.30;;;;;;;;;;5051290;28;20045;-79
2023/06/17 14:25:49;;;;;;;8.05;4.53;;;;;;;;;;5078813;28;20071;-79
2023/06/17 14:28:16;;;;;;;11.02;4.50;;;;;;;;;;5063999;28;20068;-79
2023/06/17 14:30:43;;;;;;;9.05;4.50;;;;;;;;;;5051596;28;20045;-78
2023/06/17 14:33:09;;;;;;;8.90;4.90;;;;;;;;;;5050581;28;20134;-79
2023/06/17 14:35:35;;;;;;;7.63;4.50;;;;;;;;;;5053017;28;20052;-80
2023/06/17 14:38:01;;;;;;;7.82;4.00;;;;;;;;;;5066346;28;20041;-83
2023/06/17 14:40:27;;;;;;;8.88;4.25;;;;;;;;;;5068466;28;20053;-79